Time;durP1;ratioP1;P1;durP2;ratioP2;P2;SDS_P1;SDS_P2;PMS_P1;PMS_P2;Temp;Humidity;BMP_temperature;BMP_pressure;BME280_temperature;BME280_humidity;BME280_pressure;Samples;Min_cycle;Max_cycle;Signal;HPM_P1;HPM_P2
2022/04/30 00:00:38;;;;;;;4.65;2.17;;;;;;;2.03;52.87;100079.06;5096146;28;20070;-76
2022/04/30 00:03:03;;;;;;;3.33;2.20;;;;;;;2.02;53.47;100074.69;5044448;28;20494;-76
2022/04/30 00:05:31;;;;;;;4.43;2.47;;;;;;;2.02;52.93;100077.31;5095934;28;20044;-76
2022/04/30 00:07:57;;;;;;;3.83;2.42;;;;;;;2.03;53.14;100063.25;5077870;28;20044;-76
2022/04/30 00:10:23;;;;;;;6.28;2.40;;;;;;;1.98;52.86;100070.41;5077909;28;20047;-76
2022/04/30 00:12:50;;;;;;;3.08;2.30;;;;;;;1.95;53.08;100073.16;5077598;28;20051;-76
2022/04/30 00:15:16;;;;;;;2.40;1.70;;;;;;;1.96;52.97;100067.00;5094376;28;20109;-76
2022/04/30 00:17:42;;;;;;;2.75;2.10;;;;;;;1.99;52.96;100061.59;5061217;28;20155;-75
2022/04/30 00:20:08;;;;;;;10.93;2.17;;;;;;;1.91;53.14;100050.44;5077499;28;20421;-76
2022/04/30 00:22:35;;;;;;;4.70;2.38;;;;;;;1.98;53.28;100070.41;5044301;28;20032;-76
2022/04/30 00:25:01;;;;;;;2.90;2.10;;;;;;;1.97;53.30;100052.03;5060798;28;20050;-76
2022/04/30 00:27:31;;;;;;;4.60;2.33;;;;;;;1.95;53.08;100063.47;5077363;28;20522;-76
2022/04/30 00:29:58;;;;;;;2.65;2.40;;;;;;;1.90;53.53;100072.44;5060855;28;20055;-75
2022/04/30 00:32:25;;;;;;;5.60;2.20;;;;;;;1.85;53.40;100058.56;5077395;28;20051;-76
2022/04/30 00:34:50;;;;;;;3.53;2.15;;;;;;;1.83;53.41;100052.47;5077557;28;20050;-75
2022/04/30 00:37:16;;;;;;;3.67;2.15;;;;;;;1.82;53.63;100061.31;5095297;28;20052;-76
2022/04/30 00:39:43;;;;;;;4.57;2.40;;;;;;;1.86;53.54;100063.78;5095339;28;20051;-75
2022/04/30 00:42:12;;;;;;;5.53;2.55;;;;;;;1.71;53.89;100053.75;5077336;28;20134;-76
2022/04/30 00:44:38;;;;;;;;;;;;;;;1.78;53.69;100065.81;5061050;28;20044;-76
2022/04/30 00:47:04;;;;;;;4.50;3.20;;;;;;;1.72;54.23;100066.00;5060915;28;19942;-78
2022/04/30 00:49:30;;;;;;;5.20;3.55;;;;;;;1.70;54.14;100073.97;5060466;28;20044;-76
2022/04/30 00:52:03;;;;;;;3.30;2.40;;;;;;;1.64;54.11;100071.53;5095268;28;20039;-76
2022/04/30 00:54:34;;;;;;;4.97;2.65;;;;;;;1.60;54.58;100062.00;5043813;28;20506;-76
2022/04/30 00:57:03;;;;;;;4.72;2.50;;;;;;;1.62;54.42;100073.34;5077063;28;20043;-76
2022/04/30 00:59:33;;;;;;;3.87;2.20;;;;;;;1.52;54.46;100053.47;5060153;28;20101;-77
2022/04/30 01:01:59;;;;;;;3.25;2.38;;;;;;;1.47;54.70;100065.94;5094861;28;20411;-75
2022/04/30 01:04:44;;;;;;;3.30;2.25;;;;;;;1.51;54.58;100059.66;5076652;28;20035;-76
2022/04/30 01:07:10;;;;;;;4.88;2.13;;;;;;;1.62;54.34;100054.91;5076857;28;20044;-76
2022/04/30 01:09:42;;;;;;;2.22;1.77;;;;;;;1.66;54.30;100063.59;5076840;28;20051;-77
2022/04/30 01:12:10;;;;;;;3.60;1.80;;;;;;;1.52;54.60;100053.47;5043813;28;20040;-74
2022/04/30 01:14:40;;;;;;;2.67;2.20;;;;;;;1.70;54.07;100073.13;5076546;28;20067;-76
2022/04/30 01:17:09;;;;;;;3.95;2.20;;;;;;;1.68;54.07;100053.84;5059808;28;20036;-77
2022/04/30 01:19:38;;;;;;;4.43;2.38;;;;;;;1.76;53.96;100062.34;5076448;28;20498;-77
2022/04/30 01:22:10;;;;;;;2.93;2.20;;;;;;;1.76;54.23;100058.84;5043216;28;20512;-76
2022/04/30 01:24:37;;;;;;;3.53;2.13;;;;;;;1.71;54.02;100040.56;5059918;28;20134;-75
2022/04/30 01:27:05;;;;;;;2.65;2.17;;;;;;;1.78;53.90;100043.88;5059580;28;20040;-78
2022/04/30 01:29:32;;;;;;;4.82;2.53;;;;;;;1.90;53.80;100048.72;5076373;28;20051;-76
2022/04/30 01:37:36;;;;;;;12.10;1.85;;;;;;;1.78;53.41;100044.72;5059520;28;20051;-76
2022/04/30 01:40:13;;;;;;;3.03;2.00;;;;;;;1.86;53.83;100066.41;5059372;28;20388;-76
2022/04/30 01:42:43;;;;;;;4.72;2.08;;;;;;;1.91;53.33;100043.38;5076504;28;20101;-76
2022/04/30 01:45:10;;;;;;;3.25;2.08;;;;;;;1.92;53.66;100058.31;5094664;28;20058;-76
2022/04/30 01:47:38;;;;;;;2.53;1.85;;;;;;;1.88;53.63;100059.34;5059139;28;20565;-76
2022/04/30 01:50:05;;;;;;;2.30;2.10;;;;;;;2.00;53.56;100055.44;5075997;28;20127;-76
2022/04/30 01:52:30;;;;;;;2.70;1.63;;;;;;;1.93;53.34;100070.56;5093792;28;20043;-75
2022/04/30 01:54:58;;;;;;;4.05;2.05;;;;;;;1.97;53.69;100058.16;5093729;28;20044;-76
2022/04/30 01:57:26;;;;;;;3.70;2.17;;;;;;;2.03;53.59;100055.31;5075733;28;20050;-76
2022/04/30 01:59:58;;;;;;;2.22;1.70;;;;;;;2.06;53.26;100060.47;5075751;28;20478;-77
2022/04/30 02:02:26;;;;;;;5.05;2.00;;;;;;;2.00;53.64;100042.25;5093570;28;20039;-77
2022/04/30 02:04:55;;;;;;;5.00;2.00;;;;;;;2.00;53.55;100046.66;5075605;28;20040;-77
2022/04/30 02:07:22;;;;;;;3.67;2.03;;;;;;;2.14;53.49;100058.47;5058868;28;20054;-76
2022/04/30 02:09:51;;;;;;;6.05;2.00;;;;;;;2.24;53.38;100058.13;5042136;28;20403;-77
2022/04/30 02:12:18;;;;;;;2.78;2.00;;;;;;;2.31;53.20;100043.81;5059080;28;20089;-76
2022/04/30 02:14:57;;;;;;;3.78;2.00;;;;;;;2.37;53.31;100051.50;5075440;28;20058;-76
2022/04/30 02:17:28;;;;;;;3.90;2.13;;;;;;;2.47;53.18;100050.28;5035002;28;20056;-76
2022/04/30 02:22:40;;;;;;;2.17;1.98;;;;;;;2.51;52.73;100041.31;5034439;28;19920;-76
2022/04/30 02:25:11;;;;;;;3.97;2.00;;;;;;;2.64;52.67;100047.91;5018011;28;20435;-76
2022/04/30 02:27:38;;;;;;;6.78;2.35;;;;;;;2.68;52.23;100028.38;5017864;28;20084;-76
2022/04/30 02:30:07;;;;;;;4.15;2.50;;;;;;;2.79;52.32;100045.63;5017742;28;20503;-77
2022/04/30 02:32:44;;;;;;;6.27;2.47;;;;;;;2.86;52.17;100042.69;5001324;28;20053;-76
2022/04/30 02:35:10;;;;;;;2.85;2.20;;;;;;;2.95;52.33;100041.47;5034470;28;20302;-76
2022/04/30 02:37:37;;;;;;;2.47;2.25;;;;;;;3.03;52.03;100042.03;5034238;28;20065;-76
2022/04/30 02:40:04;;;;;;;7.97;2.20;;;;;;;3.05;51.90;100048.16;5017732;28;20523;-76
2022/04/30 02:42:30;;;;;;;2.50;2.20;;;;;;;3.05;52.17;100044.66;5033929;28;20049;-76
2022/04/30 02:44:56;;;;;;;4.32;2.03;;;;;;;3.14;51.69;100033.72;5034188;28;20091;-77
2022/04/30 02:47:23;;;;;;;3.58;2.45;;;;;;;3.17;51.82;100037.09;5038764;28;20133;-76
2022/04/30 02:49:48;;;;;;;2.95;2.30;;;;;;;3.30;51.21;100018.97;5074805;28;20134;-77
2022/04/30 02:52:14;;;;;;;2.42;2.22;;;;;;;3.46;50.95;100027.19;5093197;28;20398;-76
2022/04/30 02:54:40;;;;;;;5.13;2.45;;;;;;;3.51;50.77;100019.91;5058258;28;20040;-75
2022/04/30 02:57:06;;;;;;;4.20;2.40;;;;;;;3.56;50.68;100017.94;5058100;28;20035;-77
2022/04/30 03:02:37;;;;;;;14.98;3.78;;;;;;;3.86;50.47;100017.59;5074449;28;20040;-77
2022/04/30 03:05:03;;;;;;;6.40;3.03;;;;;;;4.02;50.32;100026.59;5041740;28;20582;-75
2022/04/30 03:07:29;;;;;;;6.03;3.53;;;;;;;4.02;49.74;100021.31;5066545;28;20112;-75
2022/04/30 03:09:55;;;;;;;4.68;3.05;;;;;;;4.11;49.96;100020.09;5074706;28;20486;-77
2022/04/30 03:12:21;;;;;;;4.57;2.47;;;;;;;4.19;49.27;100025.06;5092022;28;20036;-74
2022/04/30 03:14:47;;;;;;;12.45;2.67;;;;;;;4.23;49.18;100034.56;5069876;28;20051;-75
2022/04/30 03:22:42;;;;;;;3.83;2.90;;;;;;;4.46;49.00;100031.78;5115813;28;20159;-77
2022/04/30 03:25:08;;;;;;;3.20;2.90;;;;;;;4.68;48.58;100022.91;5099150;28;20051;-76
2022/04/30 03:27:34;;;;;;;4.78;2.63;;;;;;;4.87;48.50;100024.63;5115789;28;20050;-75
2022/04/30 03:30:00;;;;;;;10.15;2.40;;;;;;;4.95;47.54;100018.97;5098721;28;20042;-76
2022/04/30 03:32:27;;;;;;;4.03;2.30;;;;;;;5.00;46.77;100018.75;5095703;28;20032;-78
2022/04/30 03:34:53;;;;;;;5.13;2.45;;;;;;;5.02;46.67;100031.03;5089217;28;20044;-77
2022/04/30 03:37:19;;;;;;;2.15;1.95;;;;;;;5.11;46.88;100022.66;5087629;28;20044;-77
2022/04/30 03:39:45;;;;;;;8.45;2.47;;;;;;;5.20;46.45;100026.66;5089436;28;20039;-77
2022/04/30 03:42:13;;;;;;;4.72;2.95;;;;;;;5.36;46.66;100034.75;5067149;28;20036;-76
2022/04/30 03:44:38;;;;;;;6.97;2.88;;;;;;;5.45;46.21;100028.97;5094526;28;20093;-77
2022/04/30 03:47:06;;;;;;;3.58;2.63;;;;;;;5.55;46.53;100040.03;5098330;28;20048;-77
2022/04/30 03:49:34;;;;;;;5.35;3.17;;;;;;;5.73;46.21;100033.81;5098097;28;20102;-78
2022/04/30 03:52:00;;;;;;;2.65;2.15;;;;;;;5.78;45.96;100039.75;5115346;28;20070;-77
2022/04/30 03:54:26;;;;;;;8.05;2.10;;;;;;;5.93;45.72;100018.75;5098655;28;20455;-75
2022/04/30 03:56:52;;;;;;;4.15;2.08;;;;;;;6.16;45.16;100014.91;5097649;28;20494;-76
2022/04/30 03:59:18;;;;;;;4.45;2.20;;;;;;;6.23;44.64;100021.63;5115776;28;20045;-76
2022/04/30 04:01:44;;;;;;;6.85;2.50;;;;;;;6.28;45.21;100008.97;5072421;28;20043;-77
2022/04/30 04:04:10;;;;;;;4.03;2.17;;;;;;;6.48;44.00;100003.50;5064078;28;20031;-76
2022/04/30 04:06:37;;;;;;;5.63;1.95;;;;;;;6.45;44.29;100006.31;5085319;28;20085;-78
2022/04/30 04:09:03;;;;;;;3.38;2.08;;;;;;;6.65;44.01;100015.00;5095082;28;20482;-77
2022/04/30 04:11:30;;;;;;;5.22;2.10;;;;;;;6.68;43.43;100007.75;5064117;28;20043;-76
2022/04/30 04:19:26;;;;;;;3.00;1.83;;;;;;;6.73;42.76;100004.84;5116220;28;20078;-76
2022/04/30 04:21:52;;;;;;;3.40;2.13;;;;;;;6.81;42.54;99997.34;5075707;28;20093;-91
2022/04/30 04:27:03;;;;;;;4.93;2.10;;;;;;;7.01;42.87;100010.38;5060290;28;20048;-79
2022/04/30 04:29:29;;;;;;;3.70;1.70;;;;;;;7.18;42.90;99985.50;5077164;28;20040;-80
2022/04/30 04:31:55;;;;;;;3.47;2.33;;;;;;;7.31;42.26;99993.69;5076825;28;20035;-79
2022/04/30 04:34:21;;;;;;;7.28;2.17;;;;;;;7.37;42.28;99995.13;5059750;28;20036;-79
2022/04/30 04:36:47;;;;;;;4.88;2.10;;;;;;;7.46;41.65;99998.13;5077504;28;20495;-81
2022/04/30 04:39:14;;;;;;;11.05;2.33;;;;;;;7.52;41.35;99989.81;5059976;28;20121;-81
2022/04/30 04:41:43;;;;;;;3.42;2.30;;;;;;;7.74;41.17;99997.38;5095127;28;20345;-88
2022/04/30 04:44:10;;;;;;;3.17;2.30;;;;;;;7.92;40.93;100003.44;5060457;28;20465;-81
2022/04/30 04:46:38;;;;;;;3.30;1.98;;;;;;;8.00;40.29;100003.84;5094012;28;20126;-79
2022/04/30 04:49:05;;;;;;;8.02;2.70;;;;;;;8.03;40.29;99990.38;5086153;28;20054;-79
2022/04/30 04:51:32;;;;;;;6.80;2.20;;;;;;;8.14;40.51;99996.88;5095038;28;20089;-90
2022/04/30 04:53:58;;;;;;;12.27;2.28;;;;;;;8.15;40.34;99982.59;5042954;28;20040;-81
2022/04/30 04:56:23;;;;;;;7.78;2.15;;;;;;;8.25;40.19;100005.06;5094762;28;20042;-81
2022/04/30 04:58:49;;;;;;;7.80;2.40;;;;;;;8.37;39.85;99998.16;5044339;28;20040;-83
2022/04/30 05:01:15;;;;;;;3.47;2.00;;;;;;;8.49;39.38;99997.44;5095805;28;20036;-80
2022/04/30 05:03:41;;;;;;;7.97;2.70;;;;;;;8.51;39.17;100001.72;5077105;28;20553;-77
2022/04/30 05:06:07;;;;;;;7.85;2.75;;;;;;;8.59;39.51;99995.06;5076267;28;20039;-79
2022/04/30 05:08:33;;;;;;;3.55;2.30;;;;;;;8.78;38.93;99982.31;5058603;28;20040;-88
2022/04/30 05:10:59;;;;;;;4.95;2.65;;;;;;;8.88;39.04;99982.63;5059595;28;20109;-76
2022/04/30 05:13:25;;;;;;;5.55;2.58;;;;;;;8.86;38.40;99977.34;5076150;28;20513;-77
2022/04/30 05:15:51;;;;;;;5.20;2.40;;;;;;;8.77;38.75;99969.09;5042593;28;20079;-83
2022/04/30 05:18:17;;;;;;;4.18;2.70;;;;;;;8.98;38.54;99983.72;5062541;28;20043;-81
2022/04/30 05:20:42;;;;;;;4.45;2.35;;;;;;;8.95;38.54;99974.13;5071765;28;20131;-80
2022/04/30 05:23:08;;;;;;;4.65;2.03;;;;;;;9.05;38.71;99962.88;5093026;28;20083;-79
2022/04/30 05:25:35;;;;;;;6.72;2.15;;;;;;;9.24;38.13;99974.91;5094195;28;20566;-80
2022/04/30 05:28:01;;;;;;;5.88;2.38;;;;;;;9.16;38.84;99974.56;5076043;28;20539;-80
2022/04/30 05:30:27;;;;;;;9.60;2.75;;;;;;;9.31;38.20;99980.72;5093497;28;20040;-86
2022/04/30 05:32:53;;;;;;;5.03;2.38;;;;;;;9.47;38.27;99953.88;5042621;28;20048;-80
2022/04/30 05:35:19;;;;;;;4.78;2.20;;;;;;;9.75;37.98;99962.75;5093765;28;20048;-82
2022/04/30 05:37:45;;;;;;;5.35;1.88;;;;;;;9.96;37.15;99958.63;5041565;28;20486;-83
2022/04/30 05:40:11;;;;;;;5.45;1.92;;;;;;;10.01;36.74;99961.00;5093792;28;20040;-79
2022/04/30 05:42:37;;;;;;;5.95;2.20;;;;;;;10.18;36.75;99950.00;5094031;28;20055;-78
2022/04/30 05:45:03;;;;;;;2.92;2.15;;;;;;;10.29;36.96;99952.81;5074628;28;20513;-77
2022/04/30 05:47:29;;;;;;;6.10;2.50;;;;;;;10.65;35.71;99953.91;5093770;28;20047;-81
2022/04/30 05:49:56;;;;;;;6.70;2.20;;;;;;;10.47;35.12;99948.03;5069043;28;20051;-76
2022/04/30 05:52:22;;;;;;;5.55;2.17;;;;;;;10.39;35.67;99943.22;5081164;28;20425;-81
2022/04/30 05:54:49;;;;;;;2.47;1.75;;;;;;;10.60;35.79;99945.34;5075432;28;20051;-81
2022/04/30 05:57:14;;;;;;;5.97;1.95;;;;;;;10.78;35.30;99928.00;5042272;28;20426;-80
2022/04/30 05:59:40;;;;;;;5.10;1.88;;;;;;;11.06;34.52;99936.72;5059505;28;20124;-79
2022/04/30 06:02:07;;;;;;;9.10;2.33;;;;;;;11.25;34.34;99931.72;5058810;28;20077;-78
2022/04/30 06:04:33;;;;;;;8.20;2.30;;;;;;;11.24;34.42;99927.31;5093298;28;20402;-79
2022/04/30 06:06:58;;;;;;;6.25;2.05;;;;;;;11.37;33.83;99924.63;5058161;28;20054;-80
2022/04/30 06:09:25;;;;;;;1.80;1.55;;;;;;;11.24;33.84;99930.00;5093219;28;20123;-79
2022/04/30 06:11:51;;;;;;;6.88;2.00;;;;;;;11.26;33.89;99927.22;5075213;28;20467;-79
2022/04/30 06:14:17;;;;;;;6.35;2.22;;;;;;;11.47;34.13;99924.75;5091845;28;20039;-79
2022/04/30 06:16:43;;;;;;;9.77;1.77;;;;;;;11.47;33.41;99924.75;5074917;28;20048;-78
2022/04/30 06:19:09;;;;;;;4.00;2.10;;;;;;;11.24;33.45;99924.66;5058806;28;20044;-81
2022/04/30 06:21:35;;;;;;;36.30;3.40;;;;;;;11.21;33.50;99930.25;5067918;28;20525;-81
2022/04/30 06:24:01;;;;;;;11.20;2.20;;;;;;;11.26;32.91;99928.09;5074720;28;20566;-80
2022/04/30 06:26:27;;;;;;;2.60;2.05;;;;;;;11.38;33.20;99921.81;5074744;28;20139;-80
2022/04/30 06:28:53;;;;;;;9.98;2.00;;;;;;;11.33;33.53;99918.63;5057988;28;20135;-88
2022/04/30 06:31:19;;;;;;;7.43;1.92;;;;;;;11.54;32.64;99920.66;5075018;28;20051;-81
2022/04/30 06:33:45;;;;;;;7.65;2.10;;;;;;;11.51;32.99;99920.88;5074570;28;20044;-81
2022/04/30 06:36:11;;;;;;;5.70;1.98;;;;;;;11.60;33.20;99906.84;5074322;28;20525;-86
2022/04/30 06:38:37;;;;;;;4.13;2.47;;;;;;;11.52;33.12;99917.28;5040640;28;20039;-80
2022/04/30 06:41:03;;;;;;;12.10;2.33;;;;;;;11.70;33.74;99923.03;5074749;28;20082;-82
2022/04/30 06:43:29;;;;;;;11.93;2.05;;;;;;;11.90;33.17;99917.94;5057730;28;20058;-82
2022/04/30 06:45:55;;;;;;;3.35;1.83;;;;;;;11.95;32.75;99898.81;5074420;28;20189;-78
2022/04/30 06:48:20;;;;;;;5.15;1.70;;;;;;;11.86;32.36;99916.44;5092469;28;20135;-80
2022/04/30 06:50:47;;;;;;;9.27;3.17;;;;;;;11.93;32.59;99899.94;5069601;28;20128;-76
2022/04/30 06:58:50;;;;;;;3.58;1.83;;;;;;;12.23;32.03;99908.28;5085156;28;21501;-78
2022/04/30 07:01:38;;;;;;;2.47;1.85;;;;;;;12.26;31.75;99900.00;5086935;28;20076;-76
2022/04/30 07:04:05;;;;;;;2.40;1.70;;;;;;;12.20;31.84;99892.41;5098969;28;20040;-78
2022/04/30 07:06:35;;;;;;;5.55;2.08;;;;;;;12.23;32.34;99889.50;5051366;28;20131;-77
2022/04/30 07:09:03;;;;;;;5.80;1.50;;;;;;;12.50;31.73;99890.97;5103587;28;20032;-78
2022/04/30 07:11:29;;;;;;;1.65;1.38;;;;;;;12.63;30.05;99883.66;5083185;28;20483;-76
2022/04/30 07:13:55;;;;;;;4.53;1.30;;;;;;;12.91;30.56;99881.44;5074012;28;20499;-78
2022/04/30 07:16:21;;;;;;;1.50;1.40;;;;;;;13.06;29.68;99869.47;5090764;28;20067;-78
2022/04/30 07:18:47;;;;;;;3.28;2.90;;;;;;;12.84;29.91;99887.31;5092626;28;20040;-77
2022/04/30 07:21:13;;;;;;;5.40;1.85;;;;;;;12.96;30.44;99879.22;5075208;28;20050;-78
2022/04/30 07:23:39;;;;;;;6.60;2.05;;;;;;;13.07;30.14;99860.44;5092086;28;20047;-77
2022/04/30 07:26:05;;;;;;;4.28;2.20;;;;;;;12.93;30.11;99868.75;5092116;28;20043;-79
2022/04/30 07:28:35;;;;;;;4.35;1.90;;;;;;;12.99;30.43;99844.94;5040885;28;20047;-78
2022/04/30 07:31:05;;;;;;;10.02;1.92;;;;;;;12.93;29.86;99863.38;5092420;28;20040;-80
2022/04/30 07:33:32;;;;;;;3.67;1.70;;;;;;;12.89;30.48;99857.41;5074918;28;20507;-82
2022/04/30 07:35:58;;;;;;;2.45;1.40;;;;;;;13.11;30.33;99840.41;5090684;28;20036;-78
2022/04/30 07:38:24;;;;;;;10.68;2.05;;;;;;;13.45;29.52;99848.38;5091761;28;20048;-79
2022/04/30 07:40:51;;;;;;;7.45;1.63;;;;;;;13.33;29.82;99859.16;5057083;28;20105;-76
2022/04/30 07:43:17;;;;;;;1.92;1.38;;;;;;;13.48;29.15;99859.72;5091990;28;20093;-77
2022/04/30 07:45:43;;;;;;;2.28;1.50;;;;;;;13.36;28.88;99853.53;5074070;28;20043;-76
2022/04/30 07:48:10;;;;;;;7.07;1.80;;;;;;;13.24;28.83;99851.88;5095142;28;20047;-77
2022/04/30 07:50:36;;;;;;;10.73;1.50;;;;;;;13.29;29.07;99852.34;5077480;28;20055;-78
2022/04/30 07:53:06;;;;;;;3.90;1.67;;;;;;;13.63;28.92;99844.13;5077151;28;20164;-77
2022/04/30 07:55:33;;;;;;;4.75;1.40;;;;;;;13.90;27.48;99838.22;5093881;28;20086;-77
2022/04/30 07:58:02;;;;;;;18.48;1.85;;;;;;;13.74;26.93;99835.16;5093985;28;20406;-78
2022/04/30 08:00:28;;;;;;;1.80;1.55;;;;;;;13.79;26.77;99839.16;5111811;28;20051;-76
2022/04/30 08:02:56;;;;;;;2.17;1.33;;;;;;;13.84;26.29;99823.50;5079938;28;20044;-77
2022/04/30 08:05:23;;;;;;;6.90;1.58;;;;;;;14.12;26.80;99826.47;5070934;28;20036;-77
2022/04/30 08:07:50;;;;;;;2.42;1.67;;;;;;;14.02;27.19;99812.97;5095133;28;20081;-76
2022/04/30 08:10:16;;;;;;;7.22;2.15;;;;;;;14.21;27.44;99812.22;5082055;28;20039;-76
2022/04/30 08:12:42;;;;;;;8.07;1.90;;;;;;;14.59;27.98;99818.78;5080936;28;20047;-78
2022/04/30 08:15:13;;;;;;;4.40;1.73;;;;;;;14.70;26.00;99815.97;5115563;28;20153;-77
2022/04/30 08:17:39;;;;;;;4.07;1.95;;;;;;;14.79;26.25;99809.78;5116177;28;20043;-77
2022/04/30 08:20:08;;;;;;;3.58;1.38;;;;;;;15.02;26.00;99804.16;5115778;28;20051;-77
2022/04/30 08:22:34;;;;;;;26.05;2.00;;;;;;;15.11;24.59;99808.69;5064083;28;20043;-77
2022/04/30 08:25:01;;;;;;;1.30;1.20;;;;;;;14.95;24.01;99805.69;5097795;28;20078;-77
2022/04/30 08:27:27;;;;;;;2.35;1.40;;;;;;;15.27;23.55;99798.22;5097573;28;20081;-76
2022/04/30 08:29:53;;;;;;;7.00;1.73;;;;;;;15.72;23.67;99808.44;5097666;28;20067;-77
2022/04/30 08:32:23;;;;;;;2.35;1.90;;;;;;;15.82;22.95;99803.00;5115671;28;20492;-76
2022/04/30 08:34:49;;;;;;;1.38;1.20;;;;;;;16.00;23.20;99792.31;5080338;28;20036;-77
2022/04/30 08:37:15;;;;;;;6.90;1.48;;;;;;;16.32;23.68;99793.75;5097418;28;20043;-77
2022/04/30 08:39:41;;;;;;;4.95;1.50;;;;;;;16.52;22.59;99801.63;5115752;28;20047;-77
2022/04/30 08:42:07;;;;;;;1.83;1.33;;;;;;;16.58;21.71;99792.06;5115982;28;20071;-76
2022/04/30 08:44:37;;;;;;;4.07;1.83;;;;;;;16.08;22.57;99753.84;5115258;28;20039;-78
2022/04/30 08:47:04;;;;;;;3.30;1.67;;;;;;;16.50;23.00;99783.88;5080662;28;20052;-78
2022/04/30 08:49:33;;;;;;;4.35;1.90;;;;;;;16.69;22.27;99772.97;5080022;28;20040;-77
2022/04/30 08:51:59;;;;;;;2.90;1.90;;;;;;;16.66;22.81;99780.50;5097397;28;20654;-77
2022/04/30 08:54:25;;;;;;;4.28;1.60;;;;;;;16.74;22.28;99773.41;5097265;28;20239;-77
2022/04/30 08:56:53;;;;;;;2.83;1.38;;;;;;;17.05;21.80;99761.41;5080114;28;20133;-77
2022/04/30 08:59:19;;;;;;;23.33;2.20;;;;;;;17.27;21.49;99754.69;5097041;28;20052;-77
2022/04/30 09:01:50;;;;;;;3.92;1.45;;;;;;;16.73;21.90;99751.91;5115234;28;20062;-77
2022/04/30 09:04:16;;;;;;;1.90;1.70;;;;;;;16.80;21.93;99749.50;5080535;28;20061;-76
2022/04/30 09:06:50;;;;;;;11.45;1.48;;;;;;;17.11;21.55;99753.53;5097437;28;20478;-77
2022/04/30 09:09:22;;;;;;;3.80;1.52;;;;;;;17.08;20.14;99753.84;5096970;28;20054;-77
2022/04/30 09:11:49;;;;;;;3.60;1.73;;;;;;;16.31;19.51;99748.91;5063453;28;20135;-77
2022/04/30 09:14:26;;;;;;;5.32;1.67;;;;;;;15.82;19.15;99742.84;5096510;28;20502;-77
2022/04/30 09:17:05;;;;;;;8.38;1.77;;;;;;;16.21;19.94;99738.16;5063501;28;20051;-77
2022/04/30 09:19:51;;;;;;;3.88;1.52;;;;;;;15.81;19.27;99739.31;5096918;28;20043;-77
2022/04/30 09:22:35;;;;;;;2.97;1.80;;;;;;;16.19;19.81;99722.13;5114672;28;20455;-78
2022/04/30 09:25:03;;;;;;;2.42;1.80;;;;;;;16.21;19.78;99732.75;5080147;28;20046;-77
2022/04/30 09:27:31;;;;;;;3.20;2.05;;;;;;;16.03;19.99;99730.00;5096847;28;20042;-78
2022/04/30 09:29:58;;;;;;;2.55;1.85;;;;;;;16.52;19.92;99717.13;5114854;28;20044;-78
2022/04/30 09:32:25;;;;;;;5.10;2.05;;;;;;;17.09;19.71;99709.63;5096416;28;20052;-78
2022/04/30 09:37:43;;;;;;;3.45;1.60;;;;;;;17.18;20.13;99710.53;5110025;28;20446;-80
2022/04/30 09:40:15;;;;;;;5.90;1.80;;;;;;;17.50;20.13;99704.53;5103584;28;20118;-76
2022/04/30 09:42:44;;;;;;;2.30;1.60;;;;;;;17.63;19.93;99699.53;5059597;28;20142;-83
2022/04/30 09:45:22;;;;;;;10.00;2.30;;;;;;;17.77;19.28;99697.28;5059330;28;20075;-80
2022/04/30 09:47:48;;;;;;;2.60;1.90;;;;;;;17.87;19.33;99692.63;5059208;28;20040;-78
2022/04/30 09:55:52;;;;;;;4.57;1.80;;;;;;;18.19;19.12;99695.47;5074808;28;20131;-76
2022/04/30 09:58:21;;;;;;;7.20;2.38;;;;;;;18.29;19.21;99689.09;5075636;28;20048;-89
2022/04/30 10:00:47;;;;;;;10.43;1.95;;;;;;;18.54;19.09;99677.31;5075544;28;20112;-85
2022/04/30 10:03:15;;;;;;;8.55;2.17;;;;;;;18.97;19.27;99669.97;5062574;28;20054;-81
2022/04/30 10:05:42;;;;;;;10.88;2.58;;;;;;;19.47;18.97;99668.91;5096649;28;20119;-77
2022/04/30 10:08:09;;;;;;;14.20;2.40;;;;;;;19.64;17.61;99670.59;5096029;28;20066;-78
2022/04/30 10:10:51;;;;;;;9.02;2.13;;;;;;;19.22;17.16;99675.34;5112927;28;20128;-77
2022/04/30 10:13:33;;;;;;;7.15;2.10;;;;;;;18.98;17.52;99651.84;5078653;28;20040;-77
2022/04/30 10:16:01;;;;;;;5.35;2.65;;;;;;;19.28;17.73;99647.59;5074768;28;20056;-77
2022/04/30 10:18:42;;;;;;;2.92;1.70;;;;;;;19.80;17.75;99652.59;5093008;28;20509;-78
2022/04/30 10:21:18;;;;;;;3.40;1.80;;;;;;;20.44;17.04;99638.91;5092509;28;20044;-77
2022/04/30 10:23:45;;;;;;;1.70;1.60;;;;;;;20.83;16.60;99638.81;5074741;28;20162;-77
2022/04/30 10:26:11;;;;;;;6.18;1.80;;;;;;;20.80;16.72;99622.91;5092891;28;20040;-76
2022/04/30 10:28:38;;;;;;;3.97;1.67;;;;;;;21.55;16.97;99628.34;5092319;28;20044;-76
2022/04/30 10:31:11;;;;;;;4.95;1.38;;;;;;;21.74;16.22;99624.22;5074388;28;20036;-77
2022/04/30 10:33:48;;;;;;;3.15;1.45;;;;;;;20.63;16.63;99621.31;5075044;28;20130;-77
2022/04/30 10:36:14;;;;;;;2.30;1.40;;;;;;;20.09;17.03;99620.25;5093085;28;20078;-76
2022/04/30 10:38:42;;;;;;;5.18;1.98;;;;;;;20.14;18.27;99617.84;5090985;28;20043;-80
2022/04/30 10:41:10;;;;;;;4.13;1.77;;;;;;;20.98;17.13;99607.09;5091234;28;20048;-81
2022/04/30 10:43:40;;;;;;;3.30;1.50;;;;;;;21.36;16.23;99601.66;5068943;28;20533;-78
2022/04/30 10:46:22;;;;;;;4.47;1.75;;;;;;;21.32;16.00;99605.75;5088147;28;20100;-77
2022/04/30 10:48:48;;;;;;;6.55;2.05;;;;;;;21.68;16.20;99594.19;5071870;28;20094;-77
2022/04/30 10:51:16;;;;;;;2.45;1.50;;;;;;;21.27;16.22;99597.31;5072776;28;20037;-77
2022/04/30 10:53:44;;;;;;;3.53;1.67;;;;;;;20.85;15.61;99596.84;5055042;28;20044;-77
2022/04/30 10:56:10;;;;;;;2.85;1.65;;;;;;;21.18;16.17;99598.44;5082895;28;20047;-77
2022/04/30 10:58:37;;;;;;;6.82;1.60;;;;;;;21.69;15.49;99591.25;5108742;28;20437;-77
2022/04/30 11:01:17;;;;;;;8.50;2.13;;;;;;;22.33;14.69;99592.50;5092955;28;20048;-76
2022/04/30 11:03:45;;;;;;;3.97;1.42;;;;;;;23.05;14.89;99588.81;5091557;28;20044;-77
2022/04/30 11:06:17;;;;;;;3.28;1.52;;;;;;;23.30;13.48;99584.59;5091955;28;20047;-77
2022/04/30 11:08:43;;;;;;;3.15;1.73;;;;;;;23.19;13.48;99583.25;5093037;28;20051;-78
2022/04/30 11:11:09;;;;;;;3.45;1.50;;;;;;;23.35;13.80;99567.63;5091760;28;20475;-78
2022/04/30 11:13:35;;;;;;;6.30;1.30;;;;;;;23.85;13.63;99587.50;5092562;28;20040;-78
2022/04/30 11:16:01;;;;;;;2.72;1.40;;;;;;;24.40;13.61;99575.50;5108643;28;20058;-78
2022/04/30 11:18:27;;;;;;;1.60;1.50;;;;;;;24.04;13.61;99569.50;5078015;28;20516;-77
2022/04/30 11:21:00;;;;;;;2.10;1.33;;;;;;;24.12;13.09;99561.13;5077933;28;20525;-77
2022/04/30 11:23:27;;;;;;;7.03;1.50;;;;;;;23.34;13.09;99553.16;5112793;28;20084;-78
2022/04/30 11:25:53;;;;;;;2.80;1.30;;;;;;;22.70;13.30;99564.16;5077579;28;20082;-77
2022/04/30 11:28:19;;;;;;;3.38;1.30;;;;;;;22.47;13.65;99557.03;5094810;28;20043;-78
2022/04/30 11:30:46;;;;;;;1.98;1.13;;;;;;;22.93;13.80;99545.72;5112987;28;20121;-78
2022/04/30 11:33:15;;;;;;;3.90;1.30;;;;;;;22.30;13.59;99539.25;5077452;28;20501;-78
2022/04/30 11:35:40;;;;;;;;;;;;;;;22.61;14.09;99547.13;5094807;28;20512;-77
2022/04/30 11:38:10;;;;;;;1.20;1.10;;;;;;;23.16;13.65;99550.09;5060849;28;20014;-78
2022/04/30 11:40:43;;;;;;;3.00;1.30;;;;;;;23.47;13.53;99539.59;5094192;28;20087;-78
2022/04/30 11:43:10;;;;;;;3.85;1.25;;;;;;;23.12;13.39;99535.16;5079587;28;20142;-79
2022/04/30 11:45:36;;;;;;;2.42;1.58;;;;;;;23.39;12.90;99523.38;5098269;28;20035;-77
2022/04/30 11:48:03;;;;;;;2.33;1.50;;;;;;;23.19;13.04;99528.72;5098353;28;20047;-78
2022/04/30 11:50:30;;;;;;;2.58;1.48;;;;;;;23.21;13.34;99532.09;5098488;28;20043;-79
2022/04/30 11:52:56;;;;;;;5.55;1.85;;;;;;;23.42;13.64;99533.06;5115885;28;20055;-77
2022/04/30 11:55:23;;;;;;;4.03;1.60;;;;;;;23.25;13.15;99527.09;5116351;28;20043;-79
2022/04/30 11:57:50;;;;;;;5.70;1.73;;;;;;;23.34;13.21;99519.59;5098218;28;20046;-78
2022/04/30 12:00:18;;;;;;;5.18;1.50;;;;;;;23.78;12.50;99513.75;5097870;28;20043;-76
2022/04/30 12:02:49;;;;;;;2.13;1.52;;;;;;;24.50;12.30;99520.47;5097958;28;20555;-76
2022/04/30 12:05:16;;;;;;;3.75;1.30;;;;;;;24.78;11.95;99528.44;5116292;28;20040;-76
2022/04/30 12:07:46;;;;;;;2.28;1.40;;;;;;;24.08;12.27;99505.25;5098107;28;20494;-77
2022/04/30 12:10:25;;;;;;;2.70;1.33;;;;;;;24.33;12.55;99514.50;5098281;28;20510;-75
2022/04/30 12:12:53;;;;;;;4.45;1.30;;;;;;;23.78;12.32;99515.63;5098037;28;20050;-78
2022/04/30 12:15:25;;;;;;;1.33;1.20;;;;;;;23.34;12.13;99512.25;5080918;28;20498;-75